sensor_id;sensor_type;location;lat;lon;timestamp;P1;durP1;ratioP1;P2;durP2;ratioP2
25567;SDS011;13455;51.480;7.594;2023-01-16T00:01:11;6.80;;;1.50;;
25567;SDS011;13455;51.480;7.594;2023-01-16T00:03:37;6.32;;;1.17;;
25567;SDS011;13455;51.480;7.594;2023-01-16T00:06:03;10.15;;;1.20;;
25567;SDS011;13455;51.480;7.594;2023-01-16T00:08:30;7.07;;;1.30;;
25567;SDS011;13455;51.480;7.594;2023-01-16T00:10:56;6.10;;;1.50;;
25567;SDS011;13455;51.480;7.594;2023-01-16T00:13:21;4.30;;;1.00;;
25567;SDS011;13455;51.480;7.594;2023-01-16T00:15:48;5.43;;;1.30;;
25567;SDS011;13455;51.480;7.594;2023-01-16T00:18:15;5.40;;;1.20;;
25567;SDS011;13455;51.480;7.594;2023-01-16T00:20:41;7.15;;;1.40;;
25567;SDS011;13455;51.480;7.594;2023-01-16T00:23:07;5.45;;;1.25;;
25567;SDS011;13455;51.480;7.594;2023-01-16T00:25:39;5.22;;;1.40;;
25567;SDS011;13455;51.480;7.594;2023-01-16T00:28:06;3.85;;;1.00;;
25567;SDS011;13455;51.480;7.594;2023-01-16T00:30:32;7.50;;;1.30;;
25567;SDS011;13455;51.480;7.594;2023-01-16T00:32:58;5.50;;;1.00;;
25567;SDS011;13455;51.480;7.594;2023-01-16T00:35:24;6.40;;;1.20;;
25567;SDS011;13455;51.480;7.594;2023-01-16T00:37:51;6.63;;;1.20;;
25567;SDS011;13455;51.480;7.594;2023-01-16T00:40:17;5.32;;;1.10;;
25567;SDS011;13455;51.480;7.594;2023-01-16T00:42:42;5.05;;;1.15;;
25567;SDS011;13455;51.480;7.594;2023-01-16T00:45:08;5.00;;;0.90;;
25567;SDS011;13455;51.480;7.594;2023-01-16T00:47:34;5.07;;;0.90;;
25567;SDS011;13455;51.480;7.594;2023-01-16T00:50:00;3.83;;;0.90;;
25567;SDS011;13455;51.480;7.594;2023-01-16T00:52:26;7.10;;;0.90;;
25567;SDS011;13455;51.480;7.594;2023-01-16T00:54:51;6.60;;;1.00;;
25567;SDS011;13455;51.480;7.594;2023-01-16T00:57:17;2.85;;;0.80;;
25567;SDS011;13455;51.480;7.594;2023-01-16T00:59:42;3.65;;;0.80;;
25567;SDS011;13455;51.480;7.594;2023-01-16T01:02:08;2.95;;;0.80;;
25567;SDS011;13455;51.480;7.594;2023-01-16T01:04:33;5.40;;;0.90;;
25567;SDS011;13455;51.480;7.594;2023-01-16T01:06:59;3.20;;;0.95;;
25567;SDS011;13455;51.480;7.594;2023-01-16T01:09:24;3.85;;;0.80;;
25567;SDS011;13455;51.480;7.594;2023-01-16T01:11:50;3.35;;;0.65;;
25567;SDS011;13455;51.480;7.594;2023-01-16T01:14:16;3.05;;;0.68;;
25567;SDS011;13455;51.480;7.594;2023-01-16T01:16:41;2.08;;;0.60;;
25567;SDS011;13455;51.480;7.594;2023-01-16T01:19:07;3.10;;;0.70;;
25567;SDS011;13455;51.480;7.594;2023-01-16T01:21:32;2.72;;;0.70;;
25567;SDS011;13455;51.480;7.594;2023-01-16T01:23:58;4.72;;;0.77;;
25567;SDS011;13455;51.480;7.594;2023-01-16T01:26:24;2.88;;;0.52;;
25567;SDS011;13455;51.480;7.594;2023-01-16T01:28:49;3.00;;;0.60;;
25567;SDS011;13455;51.480;7.594;2023-01-16T01:31:15;2.75;;;0.73;;
25567;SDS011;13455;51.480;7.594;2023-01-16T01:33:41;3.75;;;0.80;;
25567;SDS011;13455;51.480;7.594;2023-01-16T01:36:07;2.97;;;0.60;;
25567;SDS011;13455;51.480;7.594;2023-01-16T01:38:34;2.33;;;0.60;;
25567;SDS011;13455;51.480;7.594;2023-01-16T01:41:00;2.65;;;0.60;;
25567;SDS011;13455;51.480;7.594;2023-01-16T01:43:39;2.17;;;0.52;;
25567;SDS011;13455;51.480;7.594;2023-01-16T01:46:07;3.28;;;0.50;;
25567;SDS011;13455;51.480;7.594;2023-01-16T01:48:42;3.33;;;0.60;;
25567;SDS011;13455;51.480;7.594;2023-01-16T01:51:09;2.40;;;0.57;;
25567;SDS011;13455;51.480;7.594;2023-01-16T01:58:58;2.60;;;0.50;;
25567;SDS011;13455;51.480;7.594;2023-01-16T02:01:27;3.33;;;0.70;;
25567;SDS011;13455;51.480;7.594;2023-01-16T02:03:57;3.97;;;0.82;;
25567;SDS011;13455;51.480;7.594;2023-01-16T02:06:26;2.58;;;0.60;;
25567;SDS011;13455;51.480;7.594;2023-01-16T02:08:57;4.30;;;0.90;;
25567;SDS011;13455;51.480;7.594;2023-01-16T02:11:29;3.15;;;0.80;;
25567;SDS011;13455;51.480;7.594;2023-01-16T02:14:07;2.17;;;0.75;;
25567;SDS011;13455;51.480;7.594;2023-01-16T02:16:35;2.47;;;0.80;;
25567;SDS011;13455;51.480;7.594;2023-01-16T02:22:09;3.08;;;0.80;;
25567;SDS011;13455;51.480;7.594;2023-01-16T02:39:18;4.32;;;0.75;;
25567;SDS011;13455;51.480;7.594;2023-01-16T02:42:26;5.55;;;0.85;;
25567;SDS011;13455;51.480;7.594;2023-01-16T02:45:03;4.68;;;1.10;;
25567;SDS011;13455;51.480;7.594;2023-01-16T02:47:58;3.63;;;0.85;;
25567;SDS011;13455;51.480;7.594;2023-01-16T02:50:28;4.00;;;0.90;;
25567;SDS011;13455;51.480;7.594;2023-01-16T02:52:59;3.63;;;0.80;;
25567;SDS011;13455;51.480;7.594;2023-01-16T02:55:41;4.70;;;0.73;;
25567;SDS011;13455;51.480;7.594;2023-01-16T02:58:18;3.87;;;0.90;;
25567;SDS011;13455;51.480;7.594;2023-01-16T03:03:39;4.18;;;0.73;;
25567;SDS011;13455;51.480;7.594;2023-01-16T03:11:42;4.40;;;0.83;;
25567;SDS011;13455;51.480;7.594;2023-01-16T03:14:20;3.55;;;0.93;;
25567;SDS011;13455;51.480;7.594;2023-01-16T03:17:04;3.03;;;0.80;;
25567;SDS011;13455;51.480;7.594;2023-01-16T03:19:41;2.25;;;0.70;;
25567;SDS011;13455;51.480;7.594;2023-01-16T03:22:16;3.72;;;0.80;;
25567;SDS011;13455;51.480;7.594;2023-01-16T03:24:53;2.33;;;0.70;;
25567;SDS011;13455;51.480;7.594;2023-01-16T03:27:43;4.85;;;0.80;;
25567;SDS011;13455;51.480;7.594;2023-01-16T03:38:19;3.08;;;0.73;;
25567;SDS011;13455;51.480;7.594;2023-01-16T03:40:47;2.33;;;0.77;;
25567;SDS011;13455;51.480;7.594;2023-01-16T03:43:23;3.05;;;0.63;;
25567;SDS011;13455;51.480;7.594;2023-01-16T03:45:58;2.53;;;0.60;;
25567;SDS011;13455;51.480;7.594;2023-01-16T03:48:36;2.50;;;0.55;;
25567;SDS011;13455;51.480;7.594;2023-01-16T03:51:12;1.70;;;0.50;;
25567;SDS011;13455;51.480;7.594;2023-01-16T03:53:46;1.88;;;0.50;;
25567;SDS011;13455;51.480;7.594;2023-01-16T03:56:38;2.97;;;0.60;;
25567;SDS011;13455;51.480;7.594;2023-01-16T03:59:12;2.03;;;0.50;;
25567;SDS011;13455;51.480;7.594;2023-01-16T04:01:49;3.35;;;0.60;;
25567;SDS011;13455;51.480;7.594;2023-01-16T04:04:20;3.58;;;0.68;;
25567;SDS011;13455;51.480;7.594;2023-01-16T04:12:12;3.58;;;0.70;;
25567;SDS011;13455;51.480;7.594;2023-01-16T04:14:42;2.65;;;0.47;;
25567;SDS011;13455;51.480;7.594;2023-01-16T04:17:09;2.45;;;0.57;;
25567;SDS011;13455;51.480;7.594;2023-01-16T04:19:35;2.95;;;0.65;;
25567;SDS011;13455;51.480;7.594;2023-01-16T04:22:04;1.95;;;0.60;;
25567;SDS011;13455;51.480;7.594;2023-01-16T04:24:31;3.28;;;0.70;;
25567;SDS011;13455;51.480;7.594;2023-01-16T04:26:58;1.73;;;0.52;;
25567;SDS011;13455;51.480;7.594;2023-01-16T04:29:23;2.55;;;0.60;;
25567;SDS011;13455;51.480;7.594;2023-01-16T04:31:50;3.08;;;0.70;;
25567;SDS011;13455;51.480;7.594;2023-01-16T04:34:16;3.03;;;0.60;;
25567;SDS011;13455;51.480;7.594;2023-01-16T04:36:42;2.20;;;0.50;;
25567;SDS011;13455;51.480;7.594;2023-01-16T04:39:07;2.65;;;0.60;;
25567;SDS011;13455;51.480;7.594;2023-01-16T04:41:33;2.05;;;0.50;;
25567;SDS011;13455;51.480;7.594;2023-01-16T04:44:02;3.88;;;0.70;;
25567;SDS011;13455;51.480;7.594;2023-01-16T04:46:30;1.97;;;0.60;;
25567;SDS011;13455;51.480;7.594;2023-01-16T04:48:56;2.58;;;0.70;;
25567;SDS011;13455;51.480;7.594;2023-01-16T04:51:21;3.05;;;0.63;;
25567;SDS011;13455;51.480;7.594;2023-01-16T04:53:47;3.08;;;0.80;;
25567;SDS011;13455;51.480;7.594;2023-01-16T04:56:13;2.60;;;0.63;;
25567;SDS011;13455;51.480;7.594;2023-01-16T04:58:38;3.90;;;0.77;;
25567;SDS011;13455;51.480;7.594;2023-01-16T05:01:04;3.90;;;0.70;;
25567;SDS011;13455;51.480;7.594;2023-01-16T05:03:29;3.87;;;0.73;;
25567;SDS011;13455;51.480;7.594;2023-01-16T05:05:55;2.77;;;0.67;;
25567;SDS011;13455;51.480;7.594;2023-01-16T05:08:21;3.67;;;0.70;;
25567;SDS011;13455;51.480;7.594;2023-01-16T05:10:50;3.88;;;0.70;;
25567;SDS011;13455;51.480;7.594;2023-01-16T05:13:16;2.22;;;0.70;;
25567;SDS011;13455;51.480;7.594;2023-01-16T05:15:42;2.80;;;0.90;;
25567;SDS011;13455;51.480;7.594;2023-01-16T05:18:09;3.20;;;0.73;;
25567;SDS011;13455;51.480;7.594;2023-01-16T05:20:36;3.95;;;1.00;;
25567;SDS011;13455;51.480;7.594;2023-01-16T05:23:02;3.05;;;0.70;;
25567;SDS011;13455;51.480;7.594;2023-01-16T05:25:28;4.28;;;0.70;;
25567;SDS011;13455;51.480;7.594;2023-01-16T05:27:54;4.97;;;0.90;;
25567;SDS011;13455;51.480;7.594;2023-01-16T05:30:20;3.63;;;0.88;;
25567;SDS011;13455;51.480;7.594;2023-01-16T05:32:45;3.70;;;0.90;;
25567;SDS011;13455;51.480;7.594;2023-01-16T05:35:11;3.80;;;1.00;;
25567;SDS011;13455;51.480;7.594;2023-01-16T05:37:37;3.47;;;0.80;;
25567;SDS011;13455;51.480;7.594;2023-01-16T05:40:03;3.28;;;0.90;;
25567;SDS011;13455;51.480;7.594;2023-01-16T05:42:29;3.80;;;1.02;;
25567;SDS011;13455;51.480;7.594;2023-01-16T05:44:54;3.83;;;0.83;;
25567;SDS011;13455;51.480;7.594;2023-01-16T05:47:20;4.43;;;0.73;;
25567;SDS011;13455;51.480;7.594;2023-01-16T05:49:46;3.90;;;0.85;;
25567;SDS011;13455;51.480;7.594;2023-01-16T05:52:12;4.55;;;0.90;;
25567;SDS011;13455;51.480;7.594;2023-01-16T05:54:38;4.68;;;0.82;;
25567;SDS011;13455;51.480;7.594;2023-01-16T05:57:04;3.57;;;0.73;;
25567;SDS011;13455;51.480;7.594;2023-01-16T05:59:30;4.90;;;0.70;;
25567;SDS011;13455;51.480;7.594;2023-01-16T06:01:56;4.28;;;0.90;;
25567;SDS011;13455;51.480;7.594;2023-01-16T06:04:22;5.32;;;0.80;;
25567;SDS011;13455;51.480;7.594;2023-01-16T06:06:48;5.00;;;1.05;;
25567;SDS011;13455;51.480;7.594;2023-01-16T06:09:14;2.80;;;0.70;;
25567;SDS011;13455;51.480;7.594;2023-01-16T06:11:40;3.70;;;0.60;;
25567;SDS011;13455;51.480;7.594;2023-01-16T06:14:05;3.33;;;0.80;;
25567;SDS011;13455;51.480;7.594;2023-01-16T06:16:31;3.17;;;0.63;;
25567;SDS011;13455;51.480;7.594;2023-01-16T06:18:57;3.95;;;0.80;;
25567;SDS011;13455;51.480;7.594;2023-01-16T06:21:23;5.67;;;0.83;;
25567;SDS011;13455;51.480;7.594;2023-01-16T06:23:49;3.40;;;0.90;;
25567;SDS011;13455;51.480;7.594;2023-01-16T06:26:14;3.90;;;0.77;;
25567;SDS011;13455;51.480;7.594;2023-01-16T06:28:40;3.17;;;0.63;;
25567;SDS011;13455;51.480;7.594;2023-01-16T06:31:06;3.80;;;0.70;;
25567;SDS011;13455;51.480;7.594;2023-01-16T06:33:32;3.07;;;0.70;;
25567;SDS011;13455;51.480;7.594;2023-01-16T06:35:58;2.80;;;0.60;;
25567;SDS011;13455;51.480;7.594;2023-01-16T06:38:23;3.07;;;0.90;;
25567;SDS011;13455;51.480;7.594;2023-01-16T06:40:52;3.60;;;0.83;;
25567;SDS011;13455;51.480;7.594;2023-01-16T06:43:21;4.25;;;0.77;;
25567;SDS011;13455;51.480;7.594;2023-01-16T06:45:48;3.45;;;0.75;;
25567;SDS011;13455;51.480;7.594;2023-01-16T06:48:13;3.45;;;0.77;;
25567;SDS011;13455;51.480;7.594;2023-01-16T06:50:39;2.60;;;0.80;;
25567;SDS011;13455;51.480;7.594;2023-01-16T06:53:05;3.08;;;0.93;;
25567;SDS011;13455;51.480;7.594;2023-01-16T06:55:30;3.00;;;0.80;;
25567;SDS011;13455;51.480;7.594;2023-01-16T06:57:56;3.27;;;0.90;;
25567;SDS011;13455;51.480;7.594;2023-01-16T07:00:22;3.38;;;0.90;;
25567;SDS011;13455;51.480;7.594;2023-01-16T07:02:52;3.72;;;0.85;;
25567;SDS011;13455;51.480;7.594;2023-01-16T07:05:19;2.25;;;0.70;;
25567;SDS011;13455;51.480;7.594;2023-01-16T07:07:49;4.53;;;1.10;;
25567;SDS011;13455;51.480;7.594;2023-01-16T07:10:15;4.35;;;0.85;;
25567;SDS011;13455;51.480;7.594;2023-01-16T07:12:42;4.18;;;0.90;;
25567;SDS011;13455;51.480;7.594;2023-01-16T07:15:08;3.22;;;0.90;;
25567;SDS011;13455;51.480;7.594;2023-01-16T07:17:53;3.00;;;0.75;;
25567;SDS011;13455;51.480;7.594;2023-01-16T07:20:37;2.80;;;0.80;;
25567;SDS011;13455;51.480;7.594;2023-01-16T07:23:26;3.30;;;0.90;;
25567;SDS011;13455;51.480;7.594;2023-01-16T07:25:55;4.30;;;0.90;;
25567;SDS011;13455;51.480;7.594;2023-01-16T07:28:22;3.75;;;0.90;;
25567;SDS011;13455;51.480;7.594;2023-01-16T07:30:48;2.50;;;0.90;;
25567;SDS011;13455;51.480;7.594;2023-01-16T07:33:15;2.13;;;0.90;;
25567;SDS011;13455;51.480;7.594;2023-01-16T07:35:41;4.50;;;1.10;;
25567;SDS011;13455;51.480;7.594;2023-01-16T07:38:07;4.05;;;1.00;;
25567;SDS011;13455;51.480;7.594;2023-01-16T07:40:33;2.65;;;0.90;;
25567;SDS011;13455;51.480;7.594;2023-01-16T07:42:59;3.57;;;1.10;;
25567;SDS011;13455;51.480;7.594;2023-01-16T07:45:24;3.60;;;0.90;;
25567;SDS011;13455;51.480;7.594;2023-01-16T07:47:50;4.30;;;1.00;;
25567;SDS011;13455;51.480;7.594;2023-01-16T07:50:16;4.53;;;1.03;;
25567;SDS011;13455;51.480;7.594;2023-01-16T07:52:42;2.40;;;0.80;;
25567;SDS011;13455;51.480;7.594;2023-01-16T07:55:09;4.30;;;1.10;;
25567;SDS011;13455;51.480;7.594;2023-01-16T07:57:38;3.67;;;1.00;;
25567;SDS011;13455;51.480;7.594;2023-01-16T08:00:07;4.40;;;0.85;;
25567;SDS011;13455;51.480;7.594;2023-01-16T08:02:49;3.42;;;1.00;;
25567;SDS011;13455;51.480;7.594;2023-01-16T08:05:15;4.63;;;1.00;;
25567;SDS011;13455;51.480;7.594;2023-01-16T08:07:41;3.63;;;1.00;;
25567;SDS011;13455;51.480;7.594;2023-01-16T08:10:08;3.40;;;1.00;;
25567;SDS011;13455;51.480;7.594;2023-01-16T08:12:36;3.78;;;1.00;;
25567;SDS011;13455;51.480;7.594;2023-01-16T08:15:03;4.15;;;1.00;;
25567;SDS011;13455;51.480;7.594;2023-01-16T08:17:29;3.33;;;0.80;;
25567;SDS011;13455;51.480;7.594;2023-01-16T08:19:54;3.17;;;0.90;;
25567;SDS011;13455;51.480;7.594;2023-01-16T08:22:20;3.63;;;0.90;;
25567;SDS011;13455;51.480;7.594;2023-01-16T08:24:45;3.07;;;0.90;;
25567;SDS011;13455;51.480;7.594;2023-01-16T08:27:11;3.67;;;1.10;;
25567;SDS011;13455;51.480;7.594;2023-01-16T08:29:37;3.87;;;1.00;;
25567;SDS011;13455;51.480;7.594;2023-01-16T08:32:03;3.47;;;0.95;;
25567;SDS011;13455;51.480;7.594;2023-01-16T08:34:29;3.50;;;0.90;;
25567;SDS011;13455;51.480;7.594;2023-01-16T08:36:54;4.87;;;1.00;;
25567;SDS011;13455;51.480;7.594;2023-01-16T08:39:21;3.40;;;0.90;;
25567;SDS011;13455;51.480;7.594;2023-01-16T08:41:46;3.70;;;0.80;;
25567;SDS011;13455;51.480;7.594;2023-01-16T08:44:30;4.85;;;0.90;;
25567;SDS011;13455;51.480;7.594;2023-01-16T08:47:18;5.13;;;1.00;;
25567;SDS011;13455;51.480;7.594;2023-01-16T08:50:08;4.22;;;1.00;;
25567;SDS011;13455;51.480;7.594;2023-01-16T08:52:57;3.73;;;0.80;;
25567;SDS011;13455;51.480;7.594;2023-01-16T08:55:23;5.43;;;1.00;;
25567;SDS011;13455;51.480;7.594;2023-01-16T08:57:49;3.78;;;0.90;;
25567;SDS011;13455;51.480;7.594;2023-01-16T09:00:14;4.97;;;1.00;;
25567;SDS011;13455;51.480;7.594;2023-01-16T09:02:40;2.78;;;0.80;;
25567;SDS011;13455;51.480;7.594;2023-01-16T09:05:06;4.47;;;1.00;;
25567;SDS011;13455;51.480;7.594;2023-01-16T09:07:32;2.33;;;1.00;;
25567;SDS011;13455;51.480;7.594;2023-01-16T09:09:58;3.85;;;0.90;;
25567;SDS011;13455;51.480;7.594;2023-01-16T09:12:23;5.45;;;0.90;;
25567;SDS011;13455;51.480;7.594;2023-01-16T09:15:27;4.97;;;1.00;;
25567;SDS011;13455;51.480;7.594;2023-01-16T09:17:54;4.80;;;1.00;;
25567;SDS011;13455;51.480;7.594;2023-01-16T09:20:20;4.03;;;0.85;;
25567;SDS011;13455;51.480;7.594;2023-01-16T09:22:45;3.75;;;0.82;;
25567;SDS011;13455;51.480;7.594;2023-01-16T09:25:11;4.93;;;1.00;;
25567;SDS011;13455;51.480;7.594;2023-01-16T09:27:37;3.35;;;0.95;;
25567;SDS011;13455;51.480;7.594;2023-01-16T09:30:03;3.38;;;0.80;;
25567;SDS011;13455;51.480;7.594;2023-01-16T09:32:30;3.25;;;0.77;;
25567;SDS011;13455;51.480;7.594;2023-01-16T09:34:55;2.73;;;0.80;;
25567;SDS011;13455;51.480;7.594;2023-01-16T09:37:21;2.93;;;1.00;;
25567;SDS011;13455;51.480;7.594;2023-01-16T09:39:47;3.13;;;0.70;;
25567;SDS011;13455;51.480;7.594;2023-01-16T09:45:34;3.80;;;0.90;;
25567;SDS011;13455;51.480;7.594;2023-01-16T09:48:02;2.50;;;0.73;;
25567;SDS011;13455;51.480;7.594;2023-01-16T09:53:01;3.17;;;0.80;;
25567;SDS011;13455;51.480;7.594;2023-01-16T09:55:48;2.70;;;0.80;;
25567;SDS011;13455;51.480;7.594;2023-01-16T09:58:35;3.78;;;0.93;;
25567;SDS011;13455;51.480;7.594;2023-01-16T10:03:44;3.20;;;0.80;;
25567;SDS011;13455;51.480;7.594;2023-01-16T10:11:48;3.17;;;0.60;;
25567;SDS011;13455;51.480;7.594;2023-01-16T10:14:57;2.42;;;0.70;;
25567;SDS011;13455;51.480;7.594;2023-01-16T10:25:58;3.27;;;0.70;;
25567;SDS011;13455;51.480;7.594;2023-01-16T10:31:29;2.00;;;0.67;;
25567;SDS011;13455;51.480;7.594;2023-01-16T10:36:31;2.45;;;0.70;;
25567;SDS011;13455;51.480;7.594;2023-01-16T10:39:00;1.77;;;0.63;;
25567;SDS011;13455;51.480;7.594;2023-01-16T10:41:30;2.42;;;0.82;;
25567;SDS011;13455;51.480;7.594;2023-01-16T10:47:15;1.63;;;0.60;;
25567;SDS011;13455;51.480;7.594;2023-01-16T10:50:01;2.97;;;0.60;;
25567;SDS011;13455;51.480;7.594;2023-01-16T10:52:27;2.58;;;0.60;;
25567;SDS011;13455;51.480;7.594;2023-01-16T10:54:54;1.50;;;0.55;;
25567;SDS011;13455;51.480;7.594;2023-01-16T10:57:22;1.93;;;0.57;;
25567;SDS011;13455;51.480;7.594;2023-01-16T10:59:52;1.90;;;0.50;;
25567;SDS011;13455;51.480;7.594;2023-01-16T11:02:29;1.93;;;0.50;;
25567;SDS011;13455;51.480;7.594;2023-01-16T11:04:58;1.67;;;0.50;;
25567;SDS011;13455;51.480;7.594;2023-01-16T11:07:26;2.28;;;0.60;;
25567;SDS011;13455;51.480;7.594;2023-01-16T11:09:55;1.45;;;0.50;;
25567;SDS011;13455;51.480;7.594;2023-01-16T11:12:23;2.17;;;0.47;;
25567;SDS011;13455;51.480;7.594;2023-01-16T11:15:19;1.30;;;0.50;;
25567;SDS011;13455;51.480;7.594;2023-01-16T11:18:18;1.67;;;0.50;;
25567;SDS011;13455;51.480;7.594;2023-01-16T11:20:59;2.40;;;0.63;;
25567;SDS011;13455;51.480;7.594;2023-01-16T11:23:38;1.88;;;0.50;;
25567;SDS011;13455;51.480;7.594;2023-01-16T11:26:06;1.52;;;0.52;;
25567;SDS011;13455;51.480;7.594;2023-01-16T11:28:32;2.25;;;0.40;;
25567;SDS011;13455;51.480;7.594;2023-01-16T11:31:12;1.20;;;0.40;;
25567;SDS011;13455;51.480;7.594;2023-01-16T11:33:44;1.50;;;0.50;;
25567;SDS011;13455;51.480;7.594;2023-01-16T11:36:15;1.80;;;0.45;;
25567;SDS011;13455;51.480;7.594;2023-01-16T11:38:43;1.33;;;0.40;;
25567;SDS011;13455;51.480;7.594;2023-01-16T11:41:11;1.83;;;0.50;;
25567;SDS011;13455;51.480;7.594;2023-01-16T11:43:41;1.75;;;0.43;;
25567;SDS011;13455;51.480;7.594;2023-01-16T11:46:30;1.38;;;0.47;;
25567;SDS011;13455;51.480;7.594;2023-01-16T11:48:59;1.58;;;0.50;;
25567;SDS011;13455;51.480;7.594;2023-01-16T11:51:28;1.35;;;0.50;;
25567;SDS011;13455;51.480;7.594;2023-01-16T11:53:58;1.80;;;0.40;;
25567;SDS011;13455;51.480;7.594;2023-01-16T12:04:59;2.47;;;0.57;;
25567;SDS011;13455;51.480;7.594;2023-01-16T12:10:41;1.45;;;0.40;;
25567;SDS011;13455;51.480;7.594;2023-01-16T12:13:16;1.75;;;0.50;;
25567;SDS011;13455;51.480;7.594;2023-01-16T12:21:35;1.83;;;0.50;;
25567;SDS011;13455;51.480;7.594;2023-01-16T12:43:33;1.13;;;0.40;;
25567;SDS011;13455;51.480;7.594;2023-01-16T12:46:02;0.73;;;0.30;;
25567;SDS011;13455;51.480;7.594;2023-01-16T12:48:37;2.00;;;0.40;;
25567;SDS011;13455;51.480;7.594;2023-01-16T12:53:39;1.80;;;0.30;;
25567;SDS011;13455;51.480;7.594;2023-01-16T12:56:20;1.90;;;0.50;;
25567;SDS011;13455;51.480;7.594;2023-01-16T12:59:15;2.10;;;0.40;;
25567;SDS011;13455;51.480;7.594;2023-01-16T13:01:56;0.73;;;0.30;;
25567;SDS011;13455;51.480;7.594;2023-01-16T13:04:38;1.70;;;0.50;;
25567;SDS011;13455;51.480;7.594;2023-01-16T13:07:12;1.75;;;0.40;;
25567;SDS011;13455;51.480;7.594;2023-01-16T13:12:17;3.40;;;0.60;;
25567;SDS011;13455;51.480;7.594;2023-01-16T13:15:07;1.23;;;0.50;;
25567;SDS011;13455;51.480;7.594;2023-01-16T13:17:56;2.10;;;0.70;;
25567;SDS011;13455;51.480;7.594;2023-01-16T13:20:43;1.33;;;0.50;;
25567;SDS011;13455;51.480;7.594;2023-01-16T13:25:49;2.35;;;0.60;;
25567;SDS011;13455;51.480;7.594;2023-01-16T13:31:13;1.48;;;0.50;;
25567;SDS011;13455;51.480;7.594;2023-01-16T13:33:41;1.73;;;0.50;;
25567;SDS011;13455;51.480;7.594;2023-01-16T13:46:46;1.40;;;0.50;;
25567;SDS011;13455;51.480;7.594;2023-01-16T13:49:15;1.02;;;0.40;;
25567;SDS011;13455;51.480;7.594;2023-01-16T13:51:46;1.90;;;0.50;;
25567;SDS011;13455;51.480;7.594;2023-01-16T13:54:14;1.35;;;0.47;;
25567;SDS011;13455;51.480;7.594;2023-01-16T13:56:43;1.70;;;0.60;;
25567;SDS011;13455;51.480;7.594;2023-01-16T14:02:02;2.35;;;0.60;;
25567;SDS011;13455;51.480;7.594;2023-01-16T14:13:24;0.70;;;0.33;;
25567;SDS011;13455;51.480;7.594;2023-01-16T14:21:48;1.08;;;0.50;;
25567;SDS011;13455;51.480;7.594;2023-01-16T14:24:47;1.73;;;0.60;;
25567;SDS011;13455;51.480;7.594;2023-01-16T14:27:21;0.80;;;0.50;;
25567;SDS011;13455;51.480;7.594;2023-01-16T14:29:56;1.52;;;0.50;;
25567;SDS011;13455;51.480;7.594;2023-01-16T14:32:33;1.48;;;0.45;;
25567;SDS011;13455;51.480;7.594;2023-01-16T14:35:02;1.42;;;0.68;;
25567;SDS011;13455;51.480;7.594;2023-01-16T14:37:37;1.00;;;0.50;;
25567;SDS011;13455;51.480;7.594;2023-01-16T14:42:51;1.02;;;0.52;;
25567;SDS011;13455;51.480;7.594;2023-01-16T14:45:40;1.25;;;0.60;;
25567;SDS011;13455;51.480;7.594;2023-01-16T14:48:45;1.88;;;0.70;;
25567;SDS011;13455;51.480;7.594;2023-01-16T14:51:33;0.90;;;0.50;;
25567;SDS011;13455;51.480;7.594;2023-01-16T14:54:31;1.80;;;0.60;;
25567;SDS011;13455;51.480;7.594;2023-01-16T14:57:18;2.38;;;1.30;;
25567;SDS011;13455;51.480;7.594;2023-01-16T15:02:26;1.30;;;0.70;;
25567;SDS011;13455;51.480;7.594;2023-01-16T15:05:07;2.45;;;0.90;;
25567;SDS011;13455;51.480;7.594;2023-01-16T15:10:20;1.98;;;0.85;;
25567;SDS011;13455;51.480;7.594;2023-01-16T15:12:54;1.80;;;0.97;;
25567;SDS011;13455;51.480;7.594;2023-01-16T15:16:15;2.05;;;0.90;;
25567;SDS011;13455;51.480;7.594;2023-01-16T15:19:13;4.13;;;2.25;;
25567;SDS011;13455;51.480;7.594;2023-01-16T15:22:16;3.28;;;2.00;;
25567;SDS011;13455;51.480;7.594;2023-01-16T15:24:54;3.58;;;1.70;;
25567;SDS011;13455;51.480;7.594;2023-01-16T15:27:32;1.80;;;1.10;;
25567;SDS011;13455;51.480;7.594;2023-01-16T15:30:04;2.15;;;1.08;;
25567;SDS011;13455;51.480;7.594;2023-01-16T15:32:52;2.17;;;1.00;;
25567;SDS011;13455;51.480;7.594;2023-01-16T15:35:43;2.15;;;1.30;;
25567;SDS011;13455;51.480;7.594;2023-01-16T15:38:18;2.60;;;1.30;;
25567;SDS011;13455;51.480;7.594;2023-01-16T15:40:48;2.13;;;1.20;;
25567;SDS011;13455;51.480;7.594;2023-01-16T15:43:16;5.10;;;1.48;;
25567;SDS011;13455;51.480;7.594;2023-01-16T15:46:24;1.98;;;1.20;;
25567;SDS011;13455;51.480;7.594;2023-01-16T15:51:30;2.80;;;1.10;;
25567;SDS011;13455;51.480;7.594;2023-01-16T15:53:56;2.27;;;0.90;;
25567;SDS011;13455;51.480;7.594;2023-01-16T15:59:00;3.27;;;1.10;;
25567;SDS011;13455;51.480;7.594;2023-01-16T16:01:30;3.15;;;1.20;;
25567;SDS011;13455;51.480;7.594;2023-01-16T16:03:58;2.08;;;1.05;;
25567;SDS011;13455;51.480;7.594;2023-01-16T16:06:25;1.73;;;1.00;;
25567;SDS011;13455;51.480;7.594;2023-01-16T16:08:56;2.00;;;1.00;;
25567;SDS011;13455;51.480;7.594;2023-01-16T16:11:29;1.65;;;1.10;;
25567;SDS011;13455;51.480;7.594;2023-01-16T16:17:17;2.35;;;1.00;;
25567;SDS011;13455;51.480;7.594;2023-01-16T16:23:05;2.20;;;1.10;;
25567;SDS011;13455;51.480;7.594;2023-01-16T16:28:21;1.93;;;1.23;;
25567;SDS011;13455;51.480;7.594;2023-01-16T16:31:02;3.00;;;1.20;;
25567;SDS011;13455;51.480;7.594;2023-01-16T16:33:37;2.38;;;0.90;;
25567;SDS011;13455;51.480;7.594;2023-01-16T16:36:03;2.03;;;1.00;;
25567;SDS011;13455;51.480;7.594;2023-01-16T16:38:30;1.60;;;0.93;;
25567;SDS011;13455;51.480;7.594;2023-01-16T16:43:43;2.35;;;1.00;;
25567;SDS011;13455;51.480;7.594;2023-01-16T16:48:56;1.60;;;0.90;;
25567;SDS011;13455;51.480;7.594;2023-01-16T16:51:42;1.70;;;0.90;;
25567;SDS011;13455;51.480;7.594;2023-01-16T16:56:38;2.72;;;0.98;;
25567;SDS011;13455;51.480;7.594;2023-01-16T16:59:13;1.40;;;0.80;;
25567;SDS011;13455;51.480;7.594;2023-01-16T17:01:49;1.60;;;0.90;;
25567;SDS011;13455;51.480;7.594;2023-01-16T17:04:17;2.33;;;1.00;;
25567;SDS011;13455;51.480;7.594;2023-01-16T17:06:44;2.15;;;1.10;;
25567;SDS011;13455;51.480;7.594;2023-01-16T17:09:12;2.15;;;0.98;;
25567;SDS011;13455;51.480;7.594;2023-01-16T17:11:39;2.08;;;0.80;;
25567;SDS011;13455;51.480;7.594;2023-01-16T17:14:06;2.42;;;1.00;;
25567;SDS011;13455;51.480;7.594;2023-01-16T17:16:31;3.33;;;1.02;;
25567;SDS011;13455;51.480;7.594;2023-01-16T17:18:59;4.35;;;2.22;;
25567;SDS011;13455;51.480;7.594;2023-01-16T17:21:27;5.07;;;2.73;;
25567;SDS011;13455;51.480;7.594;2023-01-16T17:23:53;4.82;;;2.35;;
25567;SDS011;13455;51.480;7.594;2023-01-16T17:26:18;7.07;;;3.00;;
25567;SDS011;13455;51.480;7.594;2023-01-16T17:28:44;8.10;;;3.88;;
25567;SDS011;13455;51.480;7.594;2023-01-16T17:31:13;6.50;;;3.17;;
25567;SDS011;13455;51.480;7.594;2023-01-16T17:33:43;3.80;;;1.90;;
25567;SDS011;13455;51.480;7.594;2023-01-16T17:36:12;7.93;;;4.22;;
25567;SDS011;13455;51.480;7.594;2023-01-16T17:38:45;5.30;;;2.78;;
25567;SDS011;13455;51.480;7.594;2023-01-16T17:41:17;9.32;;;4.68;;
25567;SDS011;13455;51.480;7.594;2023-01-16T17:44:04;6.53;;;3.70;;
25567;SDS011;13455;51.480;7.594;2023-01-16T17:46:52;4.78;;;2.42;;
25567;SDS011;13455;51.480;7.594;2023-01-16T17:49:18;4.63;;;2.33;;
25567;SDS011;13455;51.480;7.594;2023-01-16T17:51:43;8.93;;;5.03;;
25567;SDS011;13455;51.480;7.594;2023-01-16T17:54:09;9.00;;;4.73;;
25567;SDS011;13455;51.480;7.594;2023-01-16T17:56:55;7.72;;;3.53;;
25567;SDS011;13455;51.480;7.594;2023-01-16T17:59:21;9.65;;;4.82;;
25567;SDS011;13455;51.480;7.594;2023-01-16T18:01:52;4.83;;;2.20;;
25567;SDS011;13455;51.480;7.594;2023-01-16T18:04:18;11.38;;;4.97;;
25567;SDS011;13455;51.480;7.594;2023-01-16T18:06:44;6.37;;;3.10;;
25567;SDS011;13455;51.480;7.594;2023-01-16T18:09:10;3.75;;;1.92;;
25567;SDS011;13455;51.480;7.594;2023-01-16T18:11:38;5.38;;;2.50;;
25567;SDS011;13455;51.480;7.594;2023-01-16T18:14:23;4.18;;;2.13;;